sensor_id;sensor_type;location;lat;lon;timestamp;pressure;altitude;pressure_sealevel;temperature;humidity
60642;BME280;46837;52.446;-1.930;2022-09-16T00:00:09;100264.32;;;12.66;66.63
60642;BME280;46837;52.446;-1.930;2022-09-16T00:01:12;100261.02;;;12.68;66.56
60642;BME280;46837;52.446;-1.930;2022-09-16T00:02:09;100262.06;;;12.70;66.47
60642;BME280;46837;52.446;-1.930;2022-09-16T00:03:09;100260.58;;;12.68;66.59
60642;BME280;46837;52.446;-1.930;2022-09-16T00:04:09;100258.99;;;12.69;66.48
60642;BME280;46837;52.446;-1.930;2022-09-16T00:05:09;100259.43;;;12.68;66.55
60642;BME280;46837;52.446;-1.930;2022-09-16T00:06:17;100261.53;;;12.65;66.62
60642;BME280;46837;52.446;-1.930;2022-09-16T00:07:09;100257.54;;;12.61;66.75
60642;BME280;46837;52.446;-1.930;2022-09-16T00:08:09;100255.36;;;12.60;66.76
60642;BME280;46837;52.446;-1.930;2022-09-16T00:09:09;100256.18;;;12.58;66.85
60642;BME280;46837;52.446;-1.930;2022-09-16T00:10:09;100252.56;;;12.59;66.80
60642;BME280;46837;52.446;-1.930;2022-09-16T00:11:09;100254.54;;;12.60;66.75
60642;BME280;46837;52.446;-1.930;2022-09-16T00:12:09;100252.25;;;12.55;66.87
60642;BME280;46837;52.446;-1.930;2022-09-16T00:13:09;100253.89;;;12.55;66.87
60642;BME280;46837;52.446;-1.930;2022-09-16T00:14:09;100251.04;;;12.54;66.89
60642;BME280;46837;52.446;-1.930;2022-09-16T00:15:09;100250.71;;;12.53;66.89
60642;BME280;46837;52.446;-1.930;2022-09-16T00:16:09;100249.74;;;12.52;66.95
60642;BME280;46837;52.446;-1.930;2022-09-16T00:17:09;100247.28;;;12.52;66.97
60642;BME280;46837;52.446;-1.930;2022-09-16T00:18:09;100248.48;;;12.51;67.03
60642;BME280;46837;52.446;-1.930;2022-09-16T00:19:09;100251.44;;;12.51;67.02
60642;BME280;46837;52.446;-1.930;2022-09-16T00:20:09;100248.55;;;12.49;67.08
60642;BME280;46837;52.446;-1.930;2022-09-16T00:21:09;100250.25;;;12.48;67.17
60642;BME280;46837;52.446;-1.930;2022-09-16T00:22:09;100250.30;;;12.48;67.20
60642;BME280;46837;52.446;-1.930;2022-09-16T00:23:09;100246.95;;;12.46;67.24
60642;BME280;46837;52.446;-1.930;2022-09-16T00:24:10;100248.78;;;12.45;67.33
60642;BME280;46837;52.446;-1.930;2022-09-16T00:25:09;100251.39;;;12.47;67.34
60642;BME280;46837;52.446;-1.930;2022-09-16T00:26:09;100251.14;;;12.45;67.33
60642;BME280;46837;52.446;-1.930;2022-09-16T00:27:09;100249.05;;;12.45;67.36
60642;BME280;46837;52.446;-1.930;2022-09-16T00:28:09;100252.83;;;12.43;67.41
60642;BME280;46837;52.446;-1.930;2022-09-16T00:29:09;100252.07;;;12.40;67.54
60642;BME280;46837;52.446;-1.930;2022-09-16T00:30:09;100254.72;;;12.38;67.60
60642;BME280;46837;52.446;-1.930;2022-09-16T00:31:09;100255.09;;;12.41;67.51
60642;BME280;46837;52.446;-1.930;2022-09-16T00:32:09;100254.72;;;12.38;67.63
60642;BME280;46837;52.446;-1.930;2022-09-16T00:33:09;100255.09;;;12.41;67.58
60642;BME280;46837;52.446;-1.930;2022-09-16T00:34:09;100254.43;;;12.46;67.49
60642;BME280;46837;52.446;-1.930;2022-09-16T00:35:09;100252.11;;;12.49;67.39
60642;BME280;46837;52.446;-1.930;2022-09-16T00:36:16;100254.80;;;12.49;67.44
60642;BME280;46837;52.446;-1.930;2022-09-16T00:37:10;100257.85;;;12.51;67.38
60642;BME280;46837;52.446;-1.930;2022-09-16T00:38:09;100259.92;;;12.53;67.32
60642;BME280;46837;52.446;-1.930;2022-09-16T00:39:09;100255.55;;;12.50;67.43
60642;BME280;46837;52.446;-1.930;2022-09-16T00:40:09;100253.36;;;12.50;67.45
60642;BME280;46837;52.446;-1.930;2022-09-16T00:41:14;100252.64;;;12.50;67.40
60642;BME280;46837;52.446;-1.930;2022-09-16T00:42:10;100252.88;;;12.47;67.47
60642;BME280;46837;52.446;-1.930;2022-09-16T00:43:10;100257.97;;;12.46;67.55
60642;BME280;46837;52.446;-1.930;2022-09-16T00:45:18;100254.85;;;12.49;67.47
60642;BME280;46837;52.446;-1.930;2022-09-16T00:46:09;100252.59;;;12.51;67.37
60642;BME280;46837;52.446;-1.930;2022-09-16T00:47:09;100255.55;;;12.51;67.38
60642;BME280;46837;52.446;-1.930;2022-09-16T00:48:09;100257.80;;;12.52;67.32
60642;BME280;46837;52.446;-1.930;2022-09-16T00:50:15;100259.48;;;12.54;67.31
60642;BME280;46837;52.446;-1.930;2022-09-16T00:51:09;100262.05;;;12.58;67.13
60642;BME280;46837;52.446;-1.930;2022-09-16T00:52:09;100261.39;;;12.57;67.18
60642;BME280;46837;52.446;-1.930;2022-09-16T00:54:09;100260.96;;;12.54;67.24
60642;BME280;46837;52.446;-1.930;2022-09-16T00:55:10;100259.16;;;12.56;67.17
60642;BME280;46837;52.446;-1.930;2022-09-16T00:56:09;100258.82;;;12.54;67.18
60642;BME280;46837;52.446;-1.930;2022-09-16T00:57:09;100260.32;;;12.52;67.22
60642;BME280;46837;52.446;-1.930;2022-09-16T00:59:15;100263.94;;;12.52;67.21
60642;BME280;46837;52.446;-1.930;2022-09-16T01:00:09;100264.22;;;12.48;67.30
60642;BME280;46837;52.446;-1.930;2022-09-16T01:01:09;100266.68;;;12.50;67.27
60642;BME280;46837;52.446;-1.930;2022-09-16T01:02:10;100264.30;;;12.54;67.12
60642;BME280;46837;52.446;-1.930;2022-09-16T01:03:09;100265.57;;;12.53;67.17
60642;BME280;46837;52.446;-1.930;2022-09-16T01:04:17;100267.09;;;12.57;67.05
60642;BME280;46837;52.446;-1.930;2022-09-16T01:05:14;100265.21;;;12.62;66.90
60642;BME280;46837;52.446;-1.930;2022-09-16T01:06:09;100267.23;;;12.64;66.85
60642;BME280;46837;52.446;-1.930;2022-09-16T01:07:09;100272.21;;;12.64;66.86
60642;BME280;46837;52.446;-1.930;2022-09-16T01:08:09;100271.07;;;12.66;66.84
60642;BME280;46837;52.446;-1.930;2022-09-16T01:09:09;100278.44;;;12.71;66.83
60642;BME280;46837;52.446;-1.930;2022-09-16T01:10:09;100278.77;;;12.71;66.81
60642;BME280;46837;52.446;-1.930;2022-09-16T01:11:09;100278.27;;;12.72;66.84
60642;BME280;46837;52.446;-1.930;2022-09-16T01:12:09;100281.07;;;12.71;66.92
60642;BME280;46837;52.446;-1.930;2022-09-16T01:13:11;100281.02;;;12.71;66.96
60642;BME280;46837;52.446;-1.930;2022-09-16T01:14:13;100276.63;;;12.73;66.92
60642;BME280;46837;52.446;-1.930;2022-09-16T01:15:09;100282.91;;;12.78;66.83
60642;BME280;46837;52.446;-1.930;2022-09-16T01:17:21;100280.56;;;12.74;67.02
60642;BME280;46837;52.446;-1.930;2022-09-16T01:19:31;100283.76;;;12.74;67.16
60642;BME280;46837;52.446;-1.930;2022-09-16T01:22:20;100281.18;;;12.72;67.28
60642;BME280;46837;52.446;-1.930;2022-09-16T01:29:20;100281.74;;;12.68;67.41
60642;BME280;46837;52.446;-1.930;2022-09-16T01:30:15;100287.15;;;12.58;67.71
60642;BME280;46837;52.446;-1.930;2022-09-16T01:31:20;100285.13;;;12.60;67.68
60642;BME280;46837;52.446;-1.930;2022-09-16T01:35:19;100288.36;;;12.60;67.50
60642;BME280;46837;52.446;-1.930;2022-09-16T01:36:17;100289.43;;;12.64;67.42
60642;BME280;46837;52.446;-1.930;2022-09-16T01:38:21;100287.84;;;12.65;67.44
60642;BME280;46837;52.446;-1.930;2022-09-16T01:45:18;100292.08;;;12.62;67.78
60642;BME280;46837;52.446;-1.930;2022-09-16T01:46:18;100287.96;;;12.62;67.82
60642;BME280;46837;52.446;-1.930;2022-09-16T01:49:18;100289.10;;;12.64;67.77
60642;BME280;46837;52.446;-1.930;2022-09-16T01:51:33;100294.68;;;12.69;67.58
60642;BME280;46837;52.446;-1.930;2022-09-16T01:52:19;100293.46;;;12.71;67.52
60642;BME280;46837;52.446;-1.930;2022-09-16T01:53:24;100294.98;;;12.74;67.49
60642;BME280;46837;52.446;-1.930;2022-09-16T01:54:12;100294.29;;;12.74;67.45
60642;BME280;46837;52.446;-1.930;2022-09-16T01:55:12;100288.42;;;12.73;67.42
60642;BME280;46837;52.446;-1.930;2022-09-16T01:56:19;100289.06;;;12.74;67.33
60642;BME280;46837;52.446;-1.930;2022-09-16T01:57:13;100283.21;;;12.74;67.41
60642;BME280;46837;52.446;-1.930;2022-09-16T01:58:20;100282.08;;;12.79;67.25
60642;BME280;46837;52.446;-1.930;2022-09-16T02:00:11;100278.46;;;12.70;67.67
60642;BME280;46837;52.446;-1.930;2022-09-16T02:03:14;100283.80;;;12.77;67.49
60642;BME280;46837;52.446;-1.930;2022-09-16T02:04:17;100283.63;;;12.75;67.53
60642;BME280;46837;52.446;-1.930;2022-09-16T02:05:15;100282.04;;;12.75;67.61
60642;BME280;46837;52.446;-1.930;2022-09-16T02:06:09;100282.30;;;12.79;67.48
60642;BME280;46837;52.446;-1.930;2022-09-16T02:07:10;100286.82;;;12.77;67.55
60642;BME280;46837;52.446;-1.930;2022-09-16T02:08:20;100290.05;;;12.77;67.61
60642;BME280;46837;52.446;-1.930;2022-09-16T02:10:15;100291.19;;;12.78;67.68
60642;BME280;46837;52.446;-1.930;2022-09-16T02:11:09;100289.73;;;12.77;67.76
60642;BME280;46837;52.446;-1.930;2022-09-16T02:12:12;100288.50;;;12.79;67.75
60642;BME280;46837;52.446;-1.930;2022-09-16T02:15:11;100289.89;;;12.77;68.05
60642;BME280;46837;52.446;-1.930;2022-09-16T02:16:11;100293.85;;;12.73;68.14
60642;BME280;46837;52.446;-1.930;2022-09-16T02:17:10;100291.44;;;12.74;68.21
60642;BME280;46837;52.446;-1.930;2022-09-16T02:18:10;100291.37;;;12.77;68.20
60642;BME280;46837;52.446;-1.930;2022-09-16T02:20:11;100287.39;;;12.70;68.35
60642;BME280;46837;52.446;-1.930;2022-09-16T02:21:10;100289.64;;;12.70;68.46
60642;BME280;46837;52.446;-1.930;2022-09-16T02:22:12;100289.14;;;12.68;68.52
60642;BME280;46837;52.446;-1.930;2022-09-16T02:23:22;100292.49;;;12.67;68.58
60642;BME280;46837;52.446;-1.930;2022-09-16T02:24:11;100299.59;;;12.57;68.84
60642;BME280;46837;52.446;-1.930;2022-09-16T02:25:09;100300.15;;;12.59;68.92
60642;BME280;46837;52.446;-1.930;2022-09-16T02:26:10;100300.25;;;12.62;68.77
60642;BME280;46837;52.446;-1.930;2022-09-16T02:27:12;100297.77;;;12.65;68.70
60642;BME280;46837;52.446;-1.930;2022-09-16T02:28:11;100295.68;;;12.64;68.81
60642;BME280;46837;52.446;-1.930;2022-09-16T02:29:14;100296.46;;;12.62;68.85
60642;BME280;46837;52.446;-1.930;2022-09-16T02:30:16;100297.23;;;12.62;68.78
60642;BME280;46837;52.446;-1.930;2022-09-16T02:31:09;100301.44;;;12.65;68.80
60642;BME280;46837;52.446;-1.930;2022-09-16T02:32:09;100296.19;;;12.61;68.86
60642;BME280;46837;52.446;-1.930;2022-09-16T02:33:09;100294.01;;;12.60;68.90
60642;BME280;46837;52.446;-1.930;2022-09-16T02:34:14;100293.47;;;12.55;68.83
60642;BME280;46837;52.446;-1.930;2022-09-16T02:35:09;100293.79;;;12.58;68.69
60642;BME280;46837;52.446;-1.930;2022-09-16T02:36:09;100293.95;;;12.58;68.72
60642;BME280;46837;52.446;-1.930;2022-09-16T02:39:10;100290.49;;;12.62;68.76
60642;BME280;46837;52.446;-1.930;2022-09-16T02:40:17;100293.05;;;12.64;68.74
60642;BME280;46837;52.446;-1.930;2022-09-16T02:41:09;100289.62;;;12.59;69.05
60642;BME280;46837;52.446;-1.930;2022-09-16T02:42:09;100294.72;;;12.57;69.12
60642;BME280;46837;52.446;-1.930;2022-09-16T02:43:09;100289.02;;;12.58;69.19
60642;BME280;46837;52.446;-1.930;2022-09-16T02:44:09;100293.35;;;12.57;69.24
60642;BME280;46837;52.446;-1.930;2022-09-16T02:45:09;100292.97;;;12.53;69.38
60642;BME280;46837;52.446;-1.930;2022-09-16T02:47:16;100296.95;;;12.48;69.70
60642;BME280;46837;52.446;-1.930;2022-09-16T02:48:14;100298.37;;;12.48;69.75
60642;BME280;46837;52.446;-1.930;2022-09-16T02:50:14;100290.61;;;12.41;69.90
60642;BME280;46837;52.446;-1.930;2022-09-16T02:51:22;100288.96;;;12.41;69.93
60642;BME280;46837;52.446;-1.930;2022-09-16T02:52:33;100288.96;;;12.46;69.90
60642;BME280;46837;52.446;-1.930;2022-09-16T02:53:18;100291.97;;;12.45;70.04
60642;BME280;46837;52.446;-1.930;2022-09-16T02:55:15;100296.89;;;12.48;70.18
60642;BME280;46837;52.446;-1.930;2022-09-16T02:56:16;100295.69;;;12.49;70.26
60642;BME280;46837;52.446;-1.930;2022-09-16T02:57:09;100294.48;;;12.48;70.35
60642;BME280;46837;52.446;-1.930;2022-09-16T02:58:09;100288.89;;;12.49;70.38
60642;BME280;46837;52.446;-1.930;2022-09-16T02:59:10;100285.60;;;12.48;70.50
60642;BME280;46837;52.446;-1.930;2022-09-16T03:00:09;100290.70;;;12.48;70.52
60642;BME280;46837;52.446;-1.930;2022-09-16T03:01:10;100288.24;;;12.45;70.80
60642;BME280;46837;52.446;-1.930;2022-09-16T03:02:09;100287.91;;;12.44;70.84
60642;BME280;46837;52.446;-1.930;2022-09-16T03:03:09;100291.85;;;12.48;70.82
60642;BME280;46837;52.446;-1.930;2022-09-16T03:04:16;100286.02;;;12.50;70.83
60642;BME280;46837;52.446;-1.930;2022-09-16T03:05:09;100287.31;;;12.46;71.05
60642;BME280;46837;52.446;-1.930;2022-09-16T03:06:17;100287.71;;;12.42;71.23
60642;BME280;46837;52.446;-1.930;2022-09-16T03:07:09;100288.36;;;12.40;71.42
60642;BME280;46837;52.446;-1.930;2022-09-16T03:08:09;100287.81;;;12.40;71.44
60642;BME280;46837;52.446;-1.930;2022-09-16T03:09:09;100289.25;;;12.38;71.61
60642;BME280;46837;52.446;-1.930;2022-09-16T03:10:13;100290.02;;;12.38;71.67
60642;BME280;46837;52.446;-1.930;2022-09-16T03:14:17;100283.09;;;12.45;71.73
60642;BME280;46837;52.446;-1.930;2022-09-16T03:16:17;100284.11;;;12.50;71.68
60642;BME280;46837;52.446;-1.930;2022-09-16T03:27:10;100292.42;;;12.36;72.47
60642;BME280;46837;52.446;-1.930;2022-09-16T03:28:14;100289.53;;;12.35;72.49
60642;BME280;46837;52.446;-1.930;2022-09-16T03:30:10;100290.85;;;12.35;72.56
60642;BME280;46837;52.446;-1.930;2022-09-16T03:33:18;100286.42;;;12.27;72.75
60642;BME280;46837;52.446;-1.930;2022-09-16T03:34:20;100289.31;;;12.29;72.77
60642;BME280;46837;52.446;-1.930;2022-09-16T03:35:16;100286.79;;;12.29;72.76
60642;BME280;46837;52.446;-1.930;2022-09-16T03:36:10;100285.95;;;12.21;72.97
60642;BME280;46837;52.446;-1.930;2022-09-16T03:37:10;100286.60;;;12.20;73.05
60642;BME280;46837;52.446;-1.930;2022-09-16T03:38:09;100290.77;;;12.21;72.99
60642;BME280;46837;52.446;-1.930;2022-09-16T03:39:09;100288.52;;;12.21;73.05
60642;BME280;46837;52.446;-1.930;2022-09-16T03:40:11;100287.14;;;12.20;73.02
60642;BME280;46837;52.446;-1.930;2022-09-16T03:41:09;100288.18;;;12.18;73.07
60642;BME280;46837;52.446;-1.930;2022-09-16T03:42:09;100288.41;;;12.20;73.14
60642;BME280;46837;52.446;-1.930;2022-09-16T03:43:12;100289.07;;;12.21;73.18
60642;BME280;46837;52.446;-1.930;2022-09-16T03:44:09;100286.38;;;12.19;73.17
60642;BME280;46837;52.446;-1.930;2022-09-16T03:45:12;100290.43;;;12.19;73.15
60642;BME280;46837;52.446;-1.930;2022-09-16T03:46:11;100288.31;;;12.17;73.26
60642;BME280;46837;52.446;-1.930;2022-09-16T03:47:09;100288.95;;;12.18;73.19
60642;BME280;46837;52.446;-1.930;2022-09-16T03:48:09;100287.76;;;12.13;73.25
60642;BME280;46837;52.446;-1.930;2022-09-16T03:49:09;100286.23;;;12.14;73.30
60642;BME280;46837;52.446;-1.930;2022-09-16T03:50:09;100286.34;;;12.17;73.19
60642;BME280;46837;52.446;-1.930;2022-09-16T03:51:09;100286.43;;;12.18;73.13
60642;BME280;46837;52.446;-1.930;2022-09-16T03:52:09;100282.49;;;12.20;73.03
60642;BME280;46837;52.446;-1.930;2022-09-16T03:53:09;100287.32;;;12.16;73.10
60642;BME280;46837;52.446;-1.930;2022-09-16T03:54:09;100286.94;;;12.12;73.23
60642;BME280;46837;52.446;-1.930;2022-09-16T03:55:09;100287.82;;;12.14;73.29
60642;BME280;46837;52.446;-1.930;2022-09-16T03:56:09;100283.82;;;12.10;73.32
60642;BME280;46837;52.446;-1.930;2022-09-16T03:57:09;100285.25;;;12.10;73.39
60642;BME280;46837;52.446;-1.930;2022-09-16T03:58:09;100284.85;;;12.11;73.32
60642;BME280;46837;52.446;-1.930;2022-09-16T03:59:09;100288.10;;;12.10;73.44
60642;BME280;46837;52.446;-1.930;2022-09-16T04:00:09;100290.78;;;12.10;73.38
60642;BME280;46837;52.446;-1.930;2022-09-16T04:01:09;100288.20;;;12.09;73.36
60642;BME280;46837;52.446;-1.930;2022-09-16T04:02:09;100290.22;;;12.08;73.46
60642;BME280;46837;52.446;-1.930;2022-09-16T04:03:09;100288.05;;;12.03;73.55
60642;BME280;46837;52.446;-1.930;2022-09-16T04:04:09;100292.48;;;12.02;73.64
60642;BME280;46837;52.446;-1.930;2022-09-16T04:05:09;100291.95;;;11.93;74.00
60642;BME280;46837;52.446;-1.930;2022-09-16T04:06:09;100292.27;;;11.96;73.96
60642;BME280;46837;52.446;-1.930;2022-09-16T04:07:09;100290.58;;;11.96;73.96
60642;BME280;46837;52.446;-1.930;2022-09-16T04:08:09;100290.41;;;11.97;73.93
60642;BME280;46837;52.446;-1.930;2022-09-16T04:09:10;100289.59;;;11.92;74.08
60642;BME280;46837;52.446;-1.930;2022-09-16T04:10:09;100285.27;;;11.92;74.08
60642;BME280;46837;52.446;-1.930;2022-09-16T04:11:09;100294.41;;;11.85;74.44
60642;BME280;46837;52.446;-1.930;2022-09-16T04:12:09;100293.10;;;11.89;74.29
60642;BME280;46837;52.446;-1.930;2022-09-16T04:13:09;100289.48;;;11.87;74.34
60642;BME280;46837;52.446;-1.930;2022-09-16T04:14:09;100292.82;;;11.90;74.29
60642;BME280;46837;52.446;-1.930;2022-09-16T04:15:09;100290.68;;;11.94;74.22
60642;BME280;46837;52.446;-1.930;2022-09-16T04:16:09;100291.88;;;11.98;74.08
60642;BME280;46837;52.446;-1.930;2022-09-16T04:17:09;100295.39;;;12.00;74.18
60642;BME280;46837;52.446;-1.930;2022-09-16T04:18:09;100293.36;;;11.98;74.17
60642;BME280;46837;52.446;-1.930;2022-09-16T04:19:09;100294.36;;;11.96;74.25
60642;BME280;46837;52.446;-1.930;2022-09-16T04:20:09;100295.77;;;11.97;74.25
60642;BME280;46837;52.446;-1.930;2022-09-16T04:21:09;100294.02;;;11.99;74.20
60642;BME280;46837;52.446;-1.930;2022-09-16T04:22:09;100295.29;;;11.96;74.14
60642;BME280;46837;52.446;-1.930;2022-09-16T04:23:09;100299.12;;;11.91;74.36
60642;BME280;46837;52.446;-1.930;2022-09-16T04:24:09;100293.75;;;11.94;74.31
60642;BME280;46837;52.446;-1.930;2022-09-16T04:25:09;100294.03;;;11.92;74.19
60642;BME280;46837;52.446;-1.930;2022-09-16T04:26:09;100293.26;;;11.91;74.25
60642;BME280;46837;52.446;-1.930;2022-09-16T04:27:09;100292.98;;;11.90;74.18
60642;BME280;46837;52.446;-1.930;2022-09-16T04:28:09;100295.23;;;11.91;74.14
60642;BME280;46837;52.446;-1.930;2022-09-16T04:29:09;100293.15;;;11.91;74.09
60642;BME280;46837;52.446;-1.930;2022-09-16T04:30:09;100292.22;;;11.92;74.12
60642;BME280;46837;52.446;-1.930;2022-09-16T04:31:10;100297.75;;;11.89;74.21
60642;BME280;46837;52.446;-1.930;2022-09-16T04:32:09;100296.92;;;11.86;74.27
60642;BME280;46837;52.446;-1.930;2022-09-16T04:33:09;100296.60;;;11.88;74.17
60642;BME280;46837;52.446;-1.930;2022-09-16T04:34:09;100296.88;;;11.90;74.15
60642;BME280;46837;52.446;-1.930;2022-09-16T04:35:09;100296.93;;;11.88;74.14
60642;BME280;46837;52.446;-1.930;2022-09-16T04:36:13;100292.72;;;11.89;74.05
60642;BME280;46837;52.446;-1.930;2022-09-16T04:37:09;100292.29;;;11.90;74.10
60642;BME280;46837;52.446;-1.930;2022-09-16T04:38:09;100293.43;;;11.90;74.14
60642;BME280;46837;52.446;-1.930;2022-09-16T04:39:09;100289.43;;;11.88;74.16
60642;BME280;46837;52.446;-1.930;2022-09-16T04:40:09;100288.28;;;11.89;74.16
60642;BME280;46837;52.446;-1.930;2022-09-16T04:41:13;100289.20;;;11.87;74.18
60642;BME280;46837;52.446;-1.930;2022-09-16T04:42:09;100284.61;;;11.88;74.24
60642;BME280;46837;52.446;-1.930;2022-09-16T04:43:09;100283.02;;;11.88;74.10
60642;BME280;46837;52.446;-1.930;2022-09-16T04:44:10;100281.22;;;11.86;74.20
60642;BME280;46837;52.446;-1.930;2022-09-16T04:45:09;100275.36;;;11.88;74.07
60642;BME280;46837;52.446;-1.930;2022-09-16T04:46:09;100278.96;;;11.90;73.97
60642;BME280;46837;52.446;-1.930;2022-09-16T04:47:09;100276.07;;;11.89;74.10
60642;BME280;46837;52.446;-1.930;2022-09-16T04:48:09;100278.52;;;11.90;73.99
60642;BME280;46837;52.446;-1.930;2022-09-16T04:49:09;100280.61;;;11.88;74.02
60642;BME280;46837;52.446;-1.930;2022-09-16T04:50:09;100280.29;;;11.90;73.95
60642;BME280;46837;52.446;-1.930;2022-09-16T04:51:09;100280.23;;;11.89;73.96
60642;BME280;46837;52.446;-1.930;2022-09-16T04:52:09;100282.53;;;11.88;73.95
60642;BME280;46837;52.446;-1.930;2022-09-16T04:53:09;100289.38;;;11.85;74.04
60642;BME280;46837;52.446;-1.930;2022-09-16T04:54:09;100288.79;;;11.83;74.10
60642;BME280;46837;52.446;-1.930;2022-09-16T04:55:09;100291.00;;;11.83;74.08
60642;BME280;46837;52.446;-1.930;2022-09-16T04:56:14;100291.03;;;11.79;74.16
60642;BME280;46837;52.446;-1.930;2022-09-16T04:57:09;100294.22;;;11.78;74.16
60642;BME280;46837;52.446;-1.930;2022-09-16T04:58:09;100292.36;;;11.74;74.25
60642;BME280;46837;52.446;-1.930;2022-09-16T04:59:09;100293.78;;;11.75;74.16
60642;BME280;46837;52.446;-1.930;2022-09-16T05:00:09;100298.15;;;11.69;74.38
60642;BME280;46837;52.446;-1.930;2022-09-16T05:01:10;100298.59;;;11.67;74.47
60642;BME280;46837;52.446;-1.930;2022-09-16T05:02:09;100297.01;;;11.65;74.52
60642;BME280;46837;52.446;-1.930;2022-09-16T05:03:09;100298.04;;;11.63;74.59
60642;BME280;46837;52.446;-1.930;2022-09-16T05:04:09;100299.83;;;11.58;74.72
60642;BME280;46837;52.446;-1.930;2022-09-16T05:05:09;100302.04;;;11.51;75.05
60642;BME280;46837;52.446;-1.930;2022-09-16T05:06:10;100304.09;;;11.48;75.13
60642;BME280;46837;52.446;-1.930;2022-09-16T05:07:09;100303.77;;;11.48;75.07
60642;BME280;46837;52.446;-1.930;2022-09-16T05:08:09;100305.03;;;11.46;75.14
60642;BME280;46837;52.446;-1.930;2022-09-16T05:09:09;100308.68;;;11.41;75.32
60642;BME280;46837;52.446;-1.930;2022-09-16T05:10:09;100305.41;;;11.40;75.40
60642;BME280;46837;52.446;-1.930;2022-09-16T05:11:10;100310.05;;;11.39;75.41
60642;BME280;46837;52.446;-1.930;2022-09-16T05:12:09;100307.80;;;11.38;75.40
60642;BME280;46837;52.446;-1.930;2022-09-16T05:13:09;100310.66;;;11.37;75.42
60642;BME280;46837;52.446;-1.930;2022-09-16T05:14:12;100311.96;;;11.35;75.51
60642;BME280;46837;52.446;-1.930;2022-09-16T05:15:09;100312.06;;;11.32;75.62
60642;BME280;46837;52.446;-1.930;2022-09-16T05:16:12;100311.89;;;11.30;75.66
60642;BME280;46837;52.446;-1.930;2022-09-16T05:17:09;100316.27;;;11.29;75.72
60642;BME280;46837;52.446;-1.930;2022-09-16T05:18:09;100315.55;;;11.26;75.84
60642;BME280;46837;52.446;-1.930;2022-09-16T05:19:09;100315.59;;;11.23;75.95
60642;BME280;46837;52.446;-1.930;2022-09-16T05:20:09;100313.23;;;11.20;76.18
60642;BME280;46837;52.446;-1.930;2022-09-16T05:21:10;100312.74;;;11.18;76.27
60642;BME280;46837;52.446;-1.930;2022-09-16T05:22:09;100316.46;;;11.20;76.18
60642;BME280;46837;52.446;-1.930;2022-09-16T05:23:09;100318.38;;;11.18;76.38
60642;BME280;46837;52.446;-1.930;2022-09-16T05:24:10;100319.52;;;11.16;76.49
60642;BME280;46837;52.446;-1.930;2022-09-16T05:25:09;100321.93;;;11.18;76.40
60642;BME280;46837;52.446;-1.930;2022-09-16T05:26:10;100323.22;;;11.16;76.41
60642;BME280;46837;52.446;-1.930;2022-09-16T05:27:09;100321.25;;;11.10;76.77
60642;BME280;46837;52.446;-1.930;2022-09-16T05:28:09;100322.25;;;11.13;76.62
60642;BME280;46837;52.446;-1.930;2022-09-16T05:29:11;100321.85;;;11.13;76.56
60642;BME280;46837;52.446;-1.930;2022-09-16T05:30:09;100322.23;;;11.13;76.62
60642;BME280;46837;52.446;-1.930;2022-09-16T05:31:16;100323.83;;;11.12;76.73
60642;BME280;46837;52.446;-1.930;2022-09-16T05:32:09;100325.09;;;11.11;76.75
60642;BME280;46837;52.446;-1.930;2022-09-16T05:33:09;100329.89;;;11.09;76.99
60642;BME280;46837;52.446;-1.930;2022-09-16T05:34:16;100328.24;;;11.10;76.81
60642;BME280;46837;52.446;-1.930;2022-09-16T05:35:09;100331.14;;;11.08;76.90
60642;BME280;46837;52.446;-1.930;2022-09-16T05:36:12;100333.98;;;11.10;76.85
60642;BME280;46837;52.446;-1.930;2022-09-16T05:37:09;100331.62;;;11.09;76.84
60642;BME280;46837;52.446;-1.930;2022-09-16T05:38:09;100330.27;;;11.08;76.91
60642;BME280;46837;52.446;-1.930;2022-09-16T05:39:09;100331.25;;;11.08;76.95
60642;BME280;46837;52.446;-1.930;2022-09-16T05:40:09;100329.44;;;11.07;76.99
60642;BME280;46837;52.446;-1.930;2022-09-16T05:41:09;100335.40;;;11.07;77.02
60642;BME280;46837;52.446;-1.930;2022-09-16T05:42:09;100330.70;;;11.05;77.09
60642;BME280;46837;52.446;-1.930;2022-09-16T05:43:09;100329.00;;;11.07;76.96
60642;BME280;46837;52.446;-1.930;2022-09-16T05:44:10;100330.86;;;11.07;76.99
60642;BME280;46837;52.446;-1.930;2022-09-16T05:45:09;100328.73;;;11.05;77.02
60642;BME280;46837;52.446;-1.930;2022-09-16T05:46:10;100330.30;;;11.01;77.33
60642;BME280;46837;52.446;-1.930;2022-09-16T05:47:09;100332.52;;;10.99;77.40
60642;BME280;46837;52.446;-1.930;2022-09-16T05:48:09;100331.99;;;11.01;77.42
60642;BME280;46837;52.446;-1.930;2022-09-16T05:49:09;100328.23;;;11.04;77.18
60642;BME280;46837;52.446;-1.930;2022-09-16T05:50:09;100332.99;;;11.06;77.10
60642;BME280;46837;52.446;-1.930;2022-09-16T05:51:09;100330.05;;;11.05;77.12
60642;BME280;46837;52.446;-1.930;2022-09-16T05:52:09;100330.19;;;11.06;77.11
60642;BME280;46837;52.446;-1.930;2022-09-16T05:53:09;100335.35;;;11.05;77.10
60642;BME280;46837;52.446;-1.930;2022-09-16T05:54:09;100332.16;;;11.03;77.24
60642;BME280;46837;52.446;-1.930;2022-09-16T05:55:09;100333.49;;;11.05;77.12
60642;BME280;46837;52.446;-1.930;2022-09-16T05:56:11;100331.93;;;10.97;77.58
60642;BME280;46837;52.446;-1.930;2022-09-16T05:57:09;100333.18;;;10.99;77.53
60642;BME280;46837;52.446;-1.930;2022-09-16T05:58:09;100338.56;;;11.04;77.22
60642;BME280;46837;52.446;-1.930;2022-09-16T05:59:10;100338.12;;;11.04;77.07
60642;BME280;46837;52.446;-1.930;2022-09-16T06:00:09;100339.16;;;11.02;77.27
60642;BME280;46837;52.446;-1.930;2022-09-16T06:01:11;100347.02;;;11.00;77.35
60642;BME280;46837;52.446;-1.930;2022-09-16T06:02:09;100341.73;;;11.01;77.28
60642;BME280;46837;52.446;-1.930;2022-09-16T06:03:09;100342.55;;;11.03;77.13
60642;BME280;46837;52.446;-1.930;2022-09-16T06:04:10;100341.98;;;10.99;77.35
60642;BME280;46837;52.446;-1.930;2022-09-16T06:05:09;100337.73;;;11.00;77.24